Time;durP1;ratioP1;P1;durP2;ratioP2;P2;SDS_P1;SDS_P2;PMS_P1;PMS_P2;Temp;Humidity;BMP_temperature;BMP_pressure;BME280_temperature;BME280_humidity;BME280_pressure;Samples;Min_cycle;Max_cycle;Signal;HPM_P1;HPM_P2
2021/06/23 00:00:19;;;;;;;;;;;13.70;99.90;;;;;;5095288;28;19916;-71
2021/06/23 00:02:44;;;;;;;;;;;13.70;99.90;;;;;;5096085;28;19919;-73
2021/06/23 00:05:10;;;;;;;;;;;13.70;99.90;;;;;;5096230;28;19908;-72
2021/06/23 00:07:35;;;;;;;;;;;13.70;99.90;;;;;;5095419;28;19915;-72
2021/06/23 00:10:01;;;;;;;;;;;13.70;99.90;;;;;;5095879;28;20050;-72
2021/06/23 00:12:29;;;;;;;;;;;13.60;99.90;;;;;;5096095;28;19908;-71
2021/06/23 00:14:55;;;;;;;;;;;13.70;99.90;;;;;;5095111;28;19943;-71
2021/06/23 00:17:20;;;;;;;;;;;13.60;99.90;;;;;;5095860;28;19916;-72
2021/06/23 00:19:46;;;;;;;;;;;13.70;99.90;;;;;;5095892;28;19923;-72
2021/06/23 00:22:11;;;;;;;;;;;13.60;99.90;;;;;;5094900;28;19919;-72
2021/06/23 00:24:37;;;;;;;;;;;13.60;99.90;;;;;;5095832;28;19909;-72
2021/06/23 00:27:03;;;;;;;;;;;13.60;99.90;;;;;;5095223;28;19909;-73
2021/06/23 00:29:28;;;;;;;;;;;13.60;99.90;;;;;;5095457;28;19961;-72
2021/06/23 00:31:54;;;;;;;;;;;13.60;99.90;;;;;;5095391;28;19912;-71
2021/06/23 00:34:21;;;;;;;;;;;13.60;99.90;;;;;;5094903;28;19915;-73
2021/06/23 00:36:46;;;;;;;;;;;13.60;99.90;;;;;;5095419;28;19908;-73
2021/06/23 00:39:12;;;;;;;;;;;13.60;99.90;;;;;;5095259;28;19976;-72
2021/06/23 00:41:37;;;;;;;;;;;13.50;99.90;;;;;;5094862;28;19908;-72
2021/06/23 00:44:03;;;;;;;;;;;13.50;99.90;;;;;;5095216;28;19927;-72
2021/06/23 00:46:28;;;;;;;;;;;13.50;99.90;;;;;;5095168;28;20352;-71
2021/06/23 00:48:55;;;;;;;;;;;13.50;99.90;;;;;;5094568;28;19961;-72
2021/06/23 00:51:20;;;;;;;;;;;13.50;99.90;;;;;;5095212;28;19984;-72
2021/06/23 00:53:46;;;;;;;;;;;13.40;99.90;;;;;;5095328;28;19912;-72
2021/06/23 00:56:11;;;;;;;;;;;13.40;99.90;;;;;;5094492;28;19908;-72
2021/06/23 00:58:38;;;;;;;;;;;13.40;99.90;;;;;;5095010;28;20245;-72
2021/06/23 01:01:04;;;;;;;;;;;13.40;99.90;;;;;;5095043;28;19920;-72
2021/06/23 01:03:29;;;;;;;;;;;13.40;99.90;;;;;;5094414;28;19992;-72
2021/06/23 01:05:55;;;;;;;;;;;13.40;99.90;;;;;;5095078;28;19930;-72
2021/06/23 01:08:21;;;;;;;;;;;13.30;99.90;;;;;;5094840;28;19908;-72
2021/06/23 01:10:46;;;;;;;;;;;13.30;99.90;;;;;;5094226;28;19951;-71
2021/06/23 01:13:32;;;;;;;;;;;13.30;99.90;;;;;;5094714;28;19908;-72
2021/06/23 01:15:59;;;;;;;;;;;13.20;99.90;;;;;;5094466;28;19915;-72
2021/06/23 01:18:25;;;;;;;;;;;13.10;99.90;;;;;;5093903;28;19919;-73
2021/06/23 01:20:51;;;;;;;;;;;13.10;99.90;;;;;;5094790;28;19908;-72
2021/06/23 01:23:16;;;;;;;;;;;13.10;99.90;;;;;;5094405;28;19931;-71
2021/06/23 01:25:42;;;;;;;;;;;13.00;99.90;;;;;;5094091;28;20433;-72
2021/06/23 01:28:11;;;;;;;;;;;13.00;99.90;;;;;;5094465;28;19915;-72
2021/06/23 01:30:36;;;;;;;;;;;13.00;99.90;;;;;;5093835;28;19946;-72
2021/06/23 01:33:02;;;;;;;;;;;12.90;99.90;;;;;;5094487;28;19955;-73
2021/06/23 01:35:30;;;;;;;;;;;12.90;99.90;;;;;;5094355;28;20325;-73
2021/06/23 01:37:56;;;;;;;;;;;12.80;99.90;;;;;;5093981;28;19916;-71
2021/06/23 01:40:21;;;;;;;;;;;12.80;99.90;;;;;;5094287;28;19916;-72
2021/06/23 01:42:47;;;;;;;;;;;12.80;99.90;;;;;;5094005;28;19916;-73
2021/06/23 01:45:13;;;;;;;;;;;12.80;99.90;;;;;;5093565;28;19909;-72
2021/06/23 01:47:39;;;;;;;;;;;12.80;99.90;;;;;;5094024;28;20316;-73
2021/06/23 01:50:04;;;;;;;;;;;12.80;99.90;;;;;;5093574;28;19919;-72
2021/06/23 01:52:30;;;;;;;;;;;12.80;99.90;;;;;;5093166;28;19961;-72
2021/06/23 01:54:55;;;;;;;;;;;12.80;99.90;;;;;;5094003;28;19912;-73
2021/06/23 01:57:22;;;;;;;;;;;12.80;99.90;;;;;;5093700;28;19928;-73
2021/06/23 01:59:48;;;;;;;;;;;12.80;99.90;;;;;;5093257;28;19923;-73
2021/06/23 02:02:19;;;;;;;;;;;12.80;99.90;;;;;;5093766;28;20287;-73
2021/06/23 02:04:48;;;;;;;;;;;12.80;99.90;;;;;;5093936;28;19963;-74
2021/06/23 02:07:13;;;;;;;;;;;12.80;99.90;;;;;;5092946;28;20371;-73
2021/06/23 02:09:56;;;;;;;;;;;12.80;99.90;;;;;;5093751;28;19908;-74
2021/06/23 02:12:25;;;;;;;;;;;12.90;99.90;;;;;;5093812;28;20003;-73
2021/06/23 02:14:51;;;;;;;;;;;12.90;99.90;;;;;;5092920;28;20360;-72
2021/06/23 02:17:17;;;;;;;;;;;12.90;99.90;;;;;;5093796;28;19915;-73
2021/06/23 02:19:43;;;;;;;;;;;12.90;99.90;;;;;;5092881;28;19916;-74
2021/06/23 02:22:10;;;;;;;;;;;12.90;99.90;;;;;;5093704;28;19915;-73
2021/06/23 02:24:35;;;;;;;;;;;13.00;99.90;;;;;;5093690;28;19913;-74
2021/06/23 02:27:01;;;;;;;;;;;13.00;99.90;;;;;;5092901;28;19915;-73
2021/06/23 02:29:26;;;;;;;;;;;13.00;99.90;;;;;;5093643;28;19908;-74
2021/06/23 02:31:54;;;;;;;;;;;13.10;99.90;;;;;;5093428;28;19995;-73
2021/06/23 02:34:20;;;;;;;;;;;13.10;99.90;;;;;;5092821;28;19908;-73
2021/06/23 02:36:46;;;;;;;;;;;13.10;99.90;;;;;;5093434;28;19999;-73
2021/06/23 02:39:11;;;;;;;;;;;13.10;99.90;;;;;;5093272;28;19918;-73
2021/06/23 02:41:37;;;;;;;;;;;13.10;99.90;;;;;;5092860;28;19950;-74
2021/06/23 02:44:03;;;;;;;;;;;13.20;99.90;;;;;;5093167;28;19920;-73
2021/06/23 02:46:29;;;;;;;;;;;13.10;99.90;;;;;;5093344;28;20384;-73
2021/06/23 02:48:55;;;;;;;;;;;13.20;99.90;;;;;;5092499;28;19943;-73
2021/06/23 02:51:21;;;;;;;;;;;13.80;99.90;;;;;;5093327;28;19914;-72
2021/06/23 02:53:47;;;;;;;;;;;13.20;99.90;;;;;;5093088;28;20343;-73
2021/06/23 02:56:13;;;;;;;;;;;13.10;99.90;;;;;;5092429;28;19909;-72
2021/06/23 02:58:40;;;;;;;;;;;13.10;99.90;;;;;;5093097;28;19912;-72
2021/06/23 03:01:06;;;;;;;;;;;13.00;99.90;;;;;;5093364;28;19908;-74
2021/06/23 03:03:31;;;;;;;;;;;13.10;99.90;;;;;;5096434;28;19961;-73
2021/06/23 03:06:00;;;;;;;;;;;13.00;99.90;;;;;;5097146;28;19908;-73
2021/06/23 03:08:26;;;;;;;;;;;13.00;99.90;;;;;;5097219;28;19931;-73
2021/06/23 03:10:52;;;;;;;;;;;13.00;99.90;;;;;;5096272;28;19968;-72
2021/06/23 03:13:17;;;;;;;;;;;13.00;99.90;;;;;;5097159;28;20342;-73
2021/06/23 03:15:43;;;;;;;;;;;13.00;99.90;;;;;;5097109;28;19908;-73
2021/06/23 03:18:08;;;;;;;;;;;13.10;99.90;;;;;;5096195;28;19909;-73
2021/06/23 03:20:33;;;;;;;;;;;13.00;99.90;;;;;;5097023;28;19920;-73
2021/06/23 03:22:59;;;;;;;;;;;13.10;99.90;;;;;;5096219;28;19908;-73
2021/06/23 03:25:24;;;;;;;;;;;13.00;99.90;;;;;;5096947;28;19961;-73
2021/06/23 03:27:52;;;;;;;;;;;13.10;99.90;;;;;;5096862;28;19908;-73
2021/06/23 03:30:17;;;;;;;;;;;13.00;99.90;;;;;;5095977;28;19908;-73
2021/06/23 03:32:44;;;;;;;;;;;13.10;99.90;;;;;;5096704;28;19988;-74
2021/06/23 03:35:10;;;;;;;;;;;13.10;99.90;;;;;;5096834;28;19908;-74
2021/06/23 03:37:35;;;;;;;;;;;13.10;99.90;;;;;;5095863;28;19918;-73
2021/06/23 03:40:01;;;;;;;;;;;13.10;99.90;;;;;;5096496;28;19961;-73
2021/06/23 03:42:26;;;;;;;;;;;13.10;99.90;;;;;;5096336;28;19919;-72
2021/06/23 03:44:52;;;;;;;;;;;13.10;99.90;;;;;;5095714;28;19908;-73
2021/06/23 03:47:17;;;;;;;;;;;13.10;99.90;;;;;;5096405;28;19951;-73
2021/06/23 03:49:43;;;;;;;;;;;13.00;99.90;;;;;;5096440;28;19987;-73
2021/06/23 03:52:08;;;;;;;;;;;13.10;99.90;;;;;;5095318;28;20356;-73
2021/06/23 03:54:37;;;;;;;;;;;13.10;99.90;;;;;;5096260;28;19957;-73
2021/06/23 03:57:02;;;;;;;;;;;13.10;99.90;;;;;;5096327;28;19950;-73
2021/06/23 03:59:28;;;;;;;;;;;13.10;99.90;;;;;;5095502;28;19952;-72
2021/06/23 04:01:53;;;;;;;;;;;13.10;99.90;;;;;;5096072;28;19912;-73
2021/06/23 04:04:19;;;;;;;;;;;13.10;99.90;;;;;;5095995;28;19916;-73
2021/06/23 04:06:44;;;;;;;;;;;13.10;99.90;;;;;;5095196;28;19931;-73
2021/06/23 04:09:10;;;;;;;;;;;13.00;99.90;;;;;;5096073;28;19952;-73
2021/06/23 04:11:35;;;;;;;;;;;13.00;99.90;;;;;;5095898;28;19913;-72
2021/06/23 04:14:02;;;;;;;;;;;13.10;99.90;;;;;;5094252;28;19915;-73
2021/06/23 04:16:28;;;;;;;;;;;13.10;99.90;;;;;;5095960;28;19908;-73
2021/06/23 04:18:53;;;;;;;;;;;13.10;99.90;;;;;;5095769;28;19924;-73
2021/06/23 04:21:19;;;;;;;;;;;13.10;99.90;;;;;;5095191;28;20241;-73
2021/06/23 04:23:44;;;;;;;;;;;13.10;99.90;;;;;;5095842;28;19912;-73
2021/06/23 04:26:10;;;;;;;;;;;13.10;99.90;;;;;;5095460;28;20386;-73
2021/06/23 04:28:35;;;;;;;;;;;13.10;99.90;;;;;;5095306;28;19915;-72
2021/06/23 04:31:01;;;;;;;;;;;13.10;99.90;;;;;;5095726;28;19916;-74
2021/06/23 04:33:26;;;;;;;;;;;13.20;99.90;;;;;;5094793;28;19973;-72
2021/06/23 04:35:54;;;;;;;;;;;13.20;99.90;;;;;;5095338;28;19995;-73
2021/06/23 04:38:19;;;;;;;;;;;13.20;99.90;;;;;;5095350;28;20004;-73
2021/06/23 04:40:45;;;;;;;;;;;13.30;99.90;;;;;;5094610;28;19916;-73
2021/06/23 04:43:10;;;;;;;;;;;13.30;99.90;;;;;;5095192;28;19963;-73
2021/06/23 04:45:36;;;;;;;;;;;13.30;99.90;;;;;;5095109;28;20019;-73
2021/06/23 04:48:02;;;;;;;;;;;13.40;99.90;;;;;;5094521;28;19955;-73
2021/06/23 04:50:27;;;;;;;;;;;13.40;99.90;;;;;;5095056;28;20272;-73
2021/06/23 04:52:52;;;;;;;;;;;13.40;99.90;;;;;;5095252;28;20022;-73
2021/06/23 04:55:18;;;;;;;;;;;13.40;99.90;;;;;;5094436;28;19954;-73
2021/06/23 04:57:43;;;;;;;;;;;13.40;99.90;;;;;;5095144;28;19947;-72
2021/06/23 05:00:09;;;;;;;;;;;13.40;99.90;;;;;;5095105;28;20001;-74
2021/06/23 05:02:35;;;;;;;;;;;13.40;99.90;;;;;;5093982;28;19909;-72
2021/06/23 05:05:00;;;;;;;;;;;13.40;99.90;;;;;;5094689;28;20007;-72
2021/06/23 05:07:26;;;;;;;;;;;13.40;99.90;;;;;;5094795;28;19909;-73
2021/06/23 05:09:51;;;;;;;;;;;13.40;99.90;;;;;;5093942;28;19931;-73
2021/06/23 05:12:17;;;;;;;;;;;13.50;99.90;;;;;;5094873;28;20348;-73
2021/06/23 05:14:43;;;;;;;;;;;13.40;99.90;;;;;;5094664;28;19908;-72
2021/06/23 05:17:08;;;;;;;;;;;13.40;99.90;;;;;;5093831;28;19939;-72
2021/06/23 05:19:35;;;;;;;;;;;13.50;99.90;;;;;;5094656;28;19946;-73
2021/06/23 05:22:03;;;;;;;;;;;13.50;99.90;;;;;;5094652;28;19908;-73
2021/06/23 05:24:30;;;;;;;;;;;13.50;99.90;;;;;;5093749;28;19908;-73
2021/06/23 05:26:56;;;;;;;;;;;13.50;99.90;;;;;;5093639;28;20276;-72
2021/06/23 05:29:21;;;;;;;;;;;13.50;99.90;;;;;;5094464;28;19915;-72
2021/06/23 05:31:47;;;;;;;;;;;13.50;99.90;;;;;;5093724;28;20379;-74
2021/06/23 05:34:12;;;;;;;;;;;13.50;99.90;;;;;;5094461;28;19915;-73
2021/06/23 05:36:38;;;;;;;;;;;13.50;99.90;;;;;;5093820;28;19915;-73
2021/06/23 05:39:04;;;;;;;;;;;13.50;99.90;;;;;;5094239;28;20339;-72
2021/06/23 05:41:30;;;;;;;;;;;13.40;99.90;;;;;;5094255;28;19908;-72
2021/06/23 05:43:55;;;;;;;;;;;13.40;99.90;;;;;;5093472;28;19927;-74
2021/06/23 05:46:21;;;;;;;;;;;13.50;99.90;;;;;;5094017;28;19985;-73
2021/06/23 05:48:46;;;;;;;;;;;13.50;99.90;;;;;;5093975;28;19999;-72
2021/06/23 05:51:12;;;;;;;;;;;13.50;99.90;;;;;;5093486;28;20320;-73
2021/06/23 05:53:37;;;;;;;;;;;13.60;99.90;;;;;;5094428;28;20394;-73
2021/06/23 05:56:03;;;;;;;;;;;13.60;99.90;;;;;;5094126;28;19908;-72
2021/06/23 05:58:28;;;;;;;;;;;13.60;99.90;;;;;;5092899;28;20364;-73
2021/06/23 06:00:54;;;;;;;;;;;13.70;99.90;;;;;;5093950;28;19969;-72
2021/06/23 06:03:19;;;;;;;;;;;13.70;99.90;;;;;;5093648;28;20351;-72
2021/06/23 06:05:46;;;;;;;;;;;13.70;99.90;;;;;;5093127;28;20004;-73
2021/06/23 06:08:12;;;;;;;;;;;13.80;99.90;;;;;;5093779;28;20362;-73
2021/06/23 06:10:37;;;;;;;;;;;13.90;99.90;;;;;;5093753;28;19912;-73
2021/06/23 06:13:03;;;;;;;;;;;14.00;99.90;;;;;;5092746;28;19908;-73
2021/06/23 06:15:29;;;;;;;;;;;14.00;99.90;;;;;;5093427;28;19912;-74
2021/06/23 06:17:58;;;;;;;;;;;14.10;99.90;;;;;;5093575;28;20321;-73
2021/06/23 06:20:24;;;;;;;;;;;14.20;99.90;;;;;;5092739;28;19959;-72
2021/06/23 06:22:49;;;;;;;;;;;14.30;99.90;;;;;;5093641;28;19908;-73
2021/06/23 06:25:15;;;;;;;;;;;14.30;99.90;;;;;;5093810;28;19908;-74
2021/06/23 06:27:40;;;;;;;;;;;14.40;99.90;;;;;;5092769;28;19908;-72
2021/06/23 06:30:06;;;;;;;;;;;14.40;99.90;;;;;;5093553;28;20372;-73
2021/06/23 06:32:31;;;;;;;;;;;14.40;99.90;;;;;;5093818;28;19912;-72
2021/06/23 06:34:57;;;;;;;;;;;14.40;99.90;;;;;;5092524;28;20305;-72
2021/06/23 06:37:22;;;;;;;;;;;14.50;99.90;;;;;;5093096;28;19908;-73
2021/06/23 06:39:48;;;;;;;;;;;14.50;99.90;;;;;;5093169;28;20360;-72
2021/06/23 06:42:13;;;;;;;;;;;14.60;99.90;;;;;;5093050;28;20317;-72
2021/06/23 06:44:39;;;;;;;;;;;14.70;99.90;;;;;;5093509;28;19954;-73
2021/06/23 06:47:04;;;;;;;;;;;15.20;99.90;;;;;;5092555;28;20273;-73
2021/06/23 06:49:31;;;;;;;;;;;14.90;99.90;;;;;;5093368;28;19961;-73
2021/06/23 06:51:58;;;;;;;;;;;15.00;99.90;;;;;;5093246;28;19912;-73
2021/06/23 06:54:27;;;;;;;;;;;15.10;99.90;;;;;;5092601;28;19909;-73
2021/06/23 06:56:53;;;;;;;;;;;15.20;99.90;;;;;;5093327;28;19908;-73
2021/06/23 06:59:18;;;;;;;;;;;15.30;99.90;;;;;;5093105;28;20260;-72
2021/06/23 07:01:44;;;;;;;;;;;15.20;99.90;;;;;;5092239;28;19919;-72
2021/06/23 07:04:10;;;;;;;;;;;15.30;99.90;;;;;;5093081;28;20020;-72
2021/06/23 07:06:35;;;;;;;;;;;15.30;99.90;;;;;;5092999;28;19912;-72
2021/06/23 07:09:01;;;;;;;;;;;15.40;99.90;;;;;;5092337;28;19914;-73
2021/06/23 07:11:26;;;;;;;;;;;15.60;99.90;;;;;;5093180;28;20284;-73
2021/06/23 07:13:52;;;;;;;;;;;15.80;99.90;;;;;;5093058;28;19908;-73
2021/06/23 07:16:17;;;;;;;;;;;15.90;99.90;;;;;;5092274;28;19912;-73
2021/06/23 07:18:45;;;;;;;;;;;15.80;99.90;;;;;;5093034;28;19915;-72
2021/06/23 07:21:16;;;;;;;;;;;15.90;99.90;;;;;;5093018;28;19914;-72
2021/06/23 07:23:41;;;;;;;;;;;15.90;99.90;;;;;;5092271;28;20310;-72
2021/06/23 07:26:07;;;;;;;;;;;16.00;99.90;;;;;;5092918;28;19939;-72
2021/06/23 07:28:52;;;;;;;;;;;16.00;99.90;;;;;;5092673;28;20260;-72
2021/06/23 07:31:25;;;;;;;;;;;16.00;99.90;;;;;;5092037;28;19915;-72
2021/06/23 07:34:01;;;;;;;;;;;16.20;99.90;;;;;;5092872;28;19915;-73
2021/06/23 07:36:41;;;;;;;;;;;16.40;99.90;;;;;;5092109;28;20379;-73
2021/06/23 07:39:09;;;;;;;;;;;16.60;99.90;;;;;;5092758;28;20439;-72
2021/06/23 07:41:36;;;;;;;;;;;16.60;99.90;;;;;;5093256;28;19943;-72
2021/06/23 07:44:02;;;;;;;;;;;16.70;99.90;;;;;;5091867;28;19920;-72
2021/06/23 07:46:30;;;;;;;;;;;16.80;99.90;;;;;;5092869;28;19912;-72
2021/06/23 07:48:56;;;;;;;;;;;16.80;99.90;;;;;;5093929;28;19915;-72
2021/06/23 07:51:39;;;;;;;;;;;16.70;99.90;;;;;;5095673;28;19970;-72
2021/06/23 07:54:20;;;;;;;;;;;16.70;99.90;;;;;;5096815;28;19940;-73
2021/06/23 08:13:14;;;;;;;;;;;16.70;99.90;;;;;;5071947;28;19934;-73
2021/06/23 08:15:41;;;;;;;;;;;16.80;99.90;;;;;;5096045;28;20414;-73
2021/06/23 08:18:07;;;;;;;;;;;16.90;99.90;;;;;;5096005;28;19952;-73
2021/06/23 08:20:33;;;;;;;;;;;16.80;99.90;;;;;;5095156;28;20004;-72
2021/06/23 08:22:58;;;;;;;;;;;16.80;99.90;;;;;;5095595;28;19995;-72
2021/06/23 08:25:24;;;;;;;;;;;16.90;99.90;;;;;;5095075;28;19912;-72
2021/06/23 08:27:50;;;;;;;;;;;17.10;99.90;;;;;;5095769;28;19931;-73
2021/06/23 08:30:16;;;;;;;;;;;17.20;99.90;;;;;;5095841;28;19908;-73
2021/06/23 08:32:41;;;;;;;;;;;17.30;99.90;;;;;;5094732;28;20537;-72
2021/06/23 08:35:09;;;;;;;;;;;17.30;99.90;;;;;;5095562;28;19915;-72
2021/06/23 08:37:35;;;;;;;;;;;17.30;99.90;;;;;;5095655;28;19915;-72
2021/06/23 08:40:00;;;;;;;;;;;17.40;99.90;;;;;;5094795;28;19923;-73
2021/06/23 08:42:26;;;;;;;;;;;17.50;99.90;;;;;;5095420;28;19920;-72
2021/06/23 08:44:52;;;;;;;;;;;17.50;99.90;;;;;;5095374;28;19909;-72
2021/06/23 08:47:18;;;;;;;;;;;17.60;99.90;;;;;;5094499;28;20023;-73
2021/06/23 08:49:45;;;;;;;;;;;17.60;99.90;;;;;;5095324;28;19944;-72
2021/06/23 08:52:10;;;;;;;;;;;17.90;99.90;;;;;;5095357;28;20316;-72
2021/06/23 08:54:36;;;;;;;;;;;17.90;99.90;;;;;;5094219;28;19958;-72
2021/06/23 08:57:01;;;;;;;;;;;18.10;99.90;;;;;;5095198;28;19908;-72
2021/06/23 08:59:27;;;;;;;;;;;18.20;99.90;;;;;;5094893;28;19938;-71
2021/06/23 09:01:54;;;;;;;;;;;18.50;99.90;;;;;;5094283;28;19915;-71
2021/06/23 09:04:23;;;;;;;;;;;18.70;99.90;;;;;;5095058;28;20390;-72
2021/06/23 09:06:49;;;;;;;;;;;18.90;99.80;;;;;;5094870;28;20281;-72
2021/06/23 09:09:30;;;;;;;;;;;19.00;99.50;;;;;;5094034;28;19919;-72
2021/06/23 09:12:00;;;;;;;;;;;18.90;98.40;;;;;;5094839;28;19974;-73
2021/06/23 09:14:26;;;;;;;;;;;18.50;99.10;;;;;;5094795;28;19912;-71
2021/06/23 09:17:18;;;;;;;;;;;18.20;98.70;;;;;;5093822;28;20368;-71
2021/06/23 09:19:44;;;;;;;;;;;18.10;99.80;;;;;;5093311;28;20014;-72
2021/06/23 09:22:29;;;;;;;;;;;17.90;99.70;;;;;;5093854;28;20386;-72
2021/06/23 09:24:54;;;;;;;;;;;17.60;99.90;;;;;;5094715;28;19912;-73
2021/06/23 09:27:21;;;;;;;;;;;17.40;99.90;;;;;;5094361;28;19961;-72
2021/06/23 09:29:47;;;;;;;;;;;17.30;99.90;;;;;;5093630;28;19912;-72
2021/06/23 09:32:13;;;;;;;;;;;17.30;99.90;;;;;;5094604;28;19908;-72
2021/06/23 09:34:43;;;;;;;;;;;17.30;99.90;;;;;;5094375;28;19908;-72
2021/06/23 09:37:27;;;;;;;;;;;17.20;99.90;;;;;;5093603;28;19912;-72
2021/06/23 09:40:08;;;;;;;;;;;17.20;99.90;;;;;;5094274;28;19916;-72
2021/06/23 09:42:36;;;;;;;;;;;17.20;99.90;;;;;;5093835;28;19920;-73
2021/06/23 09:45:06;;;;;;;;;;;17.30;99.90;;;;;;5093747;28;19952;-73
2021/06/23 09:47:34;;;;;;;;;;;17.50;99.90;;;;;;5094316;28;19915;-72
2021/06/23 09:49:59;;;;;;;;;;;17.60;99.90;;;;;;5093362;28;19908;-72
2021/06/23 09:52:25;;;;;;;;;;;17.80;99.90;;;;;;5094131;28;19914;-72
2021/06/23 09:54:55;;;;;;;;;;;17.80;99.70;;;;;;5094149;28;20407;-73
2021/06/23 09:57:20;;;;;;;;;;;17.90;99.90;;;;;;5093447;28;20389;-73
2021/06/23 09:59:51;;;;;;;;;;;17.90;99.90;;;;;;5093841;28;19955;-72
2021/06/23 10:02:27;;;;;;;;;;;17.90;99.90;;;;;;5093966;28;19908;-72
2021/06/23 10:04:56;;;;;;;;;;;18.10;99.90;;;;;;5091798;28;19909;-72
2021/06/23 10:07:39;;;;;;;;;;;18.20;99.90;;;;;;5094022;28;19908;-73
2021/06/23 10:10:05;;;;;;;;;;;18.20;99.50;;;;;;5093949;28;19913;-72
2021/06/23 10:12:31;;;;;;;;;;;18.20;99.90;;;;;;5092706;28;20000;-73
2021/06/23 10:14:57;;;;;;;;;;;18.10;99.90;;;;;;5093705;28;19948;-72
2021/06/23 10:17:22;;;;;;;;;;;18.10;99.90;;;;;;5093693;28;19908;-72
2021/06/23 10:19:48;;;;;;;;;;;18.20;99.90;;;;;;5093001;28;19916;-72
2021/06/23 10:22:14;;;;;;;;;;;18.20;99.90;;;;;;5093392;28;19915;-73
2021/06/23 10:24:40;;;;;;;;;;;18.30;99.90;;;;;;5093788;28;19912;-72
2021/06/23 10:27:09;;;;;;;;;;;18.30;99.90;;;;;;5093000;28;19908;-72
2021/06/23 10:29:36;;;;;;;;;;;18.30;99.90;;;;;;5093530;28;19935;-72
2021/06/23 10:32:03;;;;;;;;;;;18.30;99.70;;;;;;5092899;28;19908;-73
2021/06/23 10:34:28;;;;;;;;;;;18.20;99.90;;;;;;5093582;28;19908;-72
2021/06/23 10:36:57;;;;;;;;;;;18.10;99.90;;;;;;5093404;28;19912;-73
2021/06/23 10:39:24;;;;;;;;;;;18.10;99.90;;;;;;5092638;28;19922;-73
2021/06/23 10:41:51;;;;;;;;;;;18.00;99.90;;;;;;5093439;28;19912;-73
2021/06/23 10:44:20;;;;;;;;;;;17.90;99.90;;;;;;5092965;28;19927;-72
2021/06/23 10:46:47;;;;;;;;;;;17.80;99.90;;;;;;5092706;28;19912;-72
2021/06/23 10:49:16;;;;;;;;;;;17.90;99.90;;;;;;5093133;28;20368;-73
2021/06/23 10:51:43;;;;;;;;;;;17.80;99.90;;;;;;5093770;28;20011;-73
2021/06/23 10:54:26;;;;;;;;;;;17.80;99.90;;;;;;5092424;28;20424;-72
2021/06/23 10:56:52;;;;;;;;;;;17.90;99.90;;;;;;5093310;28;20037;-72
2021/06/23 10:59:34;;;;;;;;;;;18.00;99.90;;;;;;5093096;28;20032;-72
2021/06/23 11:02:07;;;;;;;;;;;18.10;99.60;;;;;;5092568;28;19924;-72
2021/06/23 11:04:52;;;;;;;;;;;18.20;99.90;;;;;;5093284;28;19913;-73
2021/06/23 11:07:33;;;;;;;;;;;18.30;99.90;;;;;;5092060;28;19915;-71
2021/06/23 11:10:17;;;;;;;;;;;18.40;99.30;;;;;;5093245;28;19908;-72
2021/06/23 11:12:46;;;;;;;;;;;18.50;99.80;;;;;;5093229;28;19915;-72
2021/06/23 11:15:12;;;;;;;;;;;18.70;99.00;;;;;;5092261;28;20375;-72
2021/06/23 11:17:38;;;;;;;;;;;18.70;98.50;;;;;;5092855;28;19995;-73
2021/06/23 11:20:04;;;;;;;;;;;18.60;98.00;;;;;;5092805;28;19935;-73
2021/06/23 11:22:36;;;;;;;;;;;18.40;98.10;;;;;;5092219;28;19908;-74
2021/06/23 11:25:20;;;;;;;;;;;18.50;98.60;;;;;;5094619;28;20251;-72
2021/06/23 11:27:45;;;;;;;;;;;18.40;98.20;;;;;;5096655;28;19953;-72
2021/06/23 11:30:20;;;;;;;;;;;18.60;98.80;;;;;;5095852;28;20388;-72
2021/06/23 11:32:46;;;;;;;;;;;18.80;98.60;;;;;;5096787;28;19909;-72
2021/06/23 11:35:12;;;;;;;;;;;19.00;98.40;;;;;;5096467;28;19922;-71
2021/06/23 11:37:38;;;;;;;;;;;19.20;98.40;;;;;;5096471;28;19908;-73
2021/06/23 11:40:08;;;;;;;;;;;19.40;97.20;;;;;;5096663;28;20485;-72
2021/06/23 11:42:33;;;;;;;;;;;19.40;96.70;;;;;;5095562;28;19923;-72
2021/06/23 11:44:59;;;;;;;;;;;19.50;97.50;;;;;;5096605;28;20280;-72
2021/06/23 11:47:24;;;;;;;;;;;19.80;96.40;;;;;;5096208;28;19958;-72
2021/06/23 11:49:50;;;;;;;;;;;19.80;95.90;;;;;;5095576;28;19908;-71
2021/06/23 11:52:16;;;;;;;;;;;20.00;96.50;;;;;;5096442;28;19912;-72
2021/06/23 11:54:41;;;;;;;;;;;20.00;96.00;;;;;;5096498;28;19908;-73
2021/06/23 11:57:07;;;;;;;;;;;19.90;96.70;;;;;;5095738;28;19998;-72
2021/06/23 11:59:32;;;;;;;;;;;20.20;96.70;;;;;;5096373;28;19973;-72
2021/06/23 12:01:58;;;;;;;;;;;20.50;96.10;;;;;;5096168;28;19908;-72
2021/06/23 12:04:23;;;;;;;;;;;20.30;95.00;;;;;;5095671;28;19934;-72
2021/06/23 12:06:49;;;;;;;;;;;20.50;95.70;;;;;;5096017;28;20352;-71
2021/06/23 12:09:14;;;;;;;;;;;20.50;95.50;;;;;;5096068;28;20352;-72
2021/06/23 12:11:40;;;;;;;;;;;20.70;95.30;;;;;;5095190;28;19908;-71
2021/06/23 12:14:05;;;;;;;;;;;20.70;93.80;;;;;;5095998;28;20386;-73
2021/06/23 12:16:31;;;;;;;;;;;20.60;95.10;;;;;;5096211;28;19995;-73
2021/06/23 12:18:56;;;;;;;;;;;20.80;94.60;;;;;;5095040;28;19912;-72
2021/06/23 12:21:22;;;;;;;;;;;20.70;93.90;;;;;;5095976;28;19912;-72
2021/06/23 12:23:47;;;;;;;;;;;20.50;93.70;;;;;;5095808;28;19914;-72
2021/06/23 12:26:13;;;;;;;;;;;20.40;94.40;;;;;;5094991;28;19908;-71
2021/06/23 12:28:39;;;;;;;;;;;20.20;94.40;;;;;;5095982;28;19995;-73
2021/06/23 12:31:05;;;;;;;;;;;20.10;94.90;;;;;;5095915;28;19908;-73
2021/06/23 12:33:30;;;;;;;;;;;20.40;94.40;;;;;;5094890;28;20020;-73
2021/06/23 12:35:56;;;;;;;;;;;20.30;93.70;;;;;;5095003;28;19915;-73
2021/06/23 12:38:21;;;;;;;;;;;20.20;94.50;;;;;;5095458;28;19908;-72
2021/06/23 12:40:47;;;;;;;;;;;20.10;94.50;;;;;;5094900;28;19916;-73
2021/06/23 12:43:14;;;;;;;;;;;19.90;94.80;;;;;;5095306;28;19947;-74
2021/06/23 12:45:40;;;;;;;;;;;19.60;94.70;;;;;;5094791;28;20012;-72
2021/06/23 12:48:06;;;;;;;;;;;19.40;95.90;;;;;;5095481;28;19908;-72
2021/06/23 12:50:32;;;;;;;;;;;19.50;95.70;;;;;;5095246;28;19908;-72
2021/06/23 12:52:57;;;;;;;;;;;19.50;95.00;;;;;;5094595;28;19999;-72
2021/06/23 12:55:23;;;;;;;;;;;19.80;95.30;;;;;;5095371;28;20002;-72
2021/06/23 12:57:48;;;;;;;;;;;20.00;95.00;;;;;;5095302;28;19915;-71
2021/06/23 13:00:15;;;;;;;;;;;20.40;94.40;;;;;;5094176;28;20367;-72
2021/06/23 13:02:41;;;;;;;;;;;20.30;93.80;;;;;;5095429;28;19912;-72
2021/06/23 13:05:07;;;;;;;;;;;20.20;94.60;;;;;;5094922;28;19988;-71
2021/06/23 13:07:33;;;;;;;;;;;20.10;93.80;;;;;;5094318;28;19912;-72
2021/06/23 13:10:00;;;;;;;;;;;20.10;94.20;;;;;;5094888;28;19908;-72
2021/06/23 13:12:26;;;;;;;;;;;20.10;94.80;;;;;;5094860;28;19930;-72
2021/06/23 13:14:51;;;;;;;;;;;19.90;93.40;;;;;;5094115;28;20294;-72
2021/06/23 13:17:17;;;;;;;;;;;19.90;94.50;;;;;;5094878;28;20312;-71
2021/06/23 13:19:43;;;;;;;;;;;20.20;94.30;;;;;;5094817;28;19916;-72
2021/06/23 13:22:11;;;;;;;;;;;20.40;93.60;;;;;;5094017;28;20386;-71
2021/06/23 13:24:36;;;;;;;;;;;20.60;93.70;;;;;;5094486;28;20378;-71
2021/06/23 13:27:02;;;;;;;;;;;20.70;92.00;;;;;;5094616;28;19908;-71
2021/06/23 13:29:27;;;;;;;;;;;20.70;92.60;;;;;;5093969;28;19909;-72
2021/06/23 13:31:53;;;;;;;;;;;20.60;92.60;;;;;;5094599;28;19915;-71
2021/06/23 13:34:18;;;;;;;;;;;20.60;92.80;;;;;;5094529;28;19965;-73
2021/06/23 13:36:44;;;;;;;;;;;20.50;92.10;;;;;;5093926;28;19923;-71
2021/06/23 13:39:11;;;;;;;;;;;20.20;92.40;;;;;;5094213;28;19912;-71
2021/06/23 13:41:41;;;;;;;;;;;20.10;93.50;;;;;;5093600;28;21196;-71
2021/06/23 13:44:06;;;;;;;;;;;20.00;93.80;;;;;;5093281;28;19931;-71
2021/06/23 13:46:32;;;;;;;;;;;19.60;94.00;;;;;;5093497;28;20291;-71
2021/06/23 13:48:57;;;;;;;;;;;19.70;94.70;;;;;;5093304;28;19920;-70
2021/06/23 13:51:23;;;;;;;;;;;19.50;93.70;;;;;;5094034;28;19912;-71
2021/06/23 13:53:48;;;;;;;;;;;19.50;94.00;;;;;;5094242;28;19919;-72
2021/06/23 13:56:14;;;;;;;;;;;19.40;94.50;;;;;;5092998;28;19916;-70
2021/06/23 13:58:39;;;;;;;;;;;19.50;94.40;;;;;;5093741;28;19915;-72
2021/06/23 14:01:04;;;;;;;;;;;19.50;94.80;;;;;;5093797;28;20006;-72
2021/06/23 14:03:30;;;;;;;;;;;19.50;94.50;;;;;;5092935;28;20352;-71
2021/06/23 14:05:55;;;;;;;;;;;19.70;94.00;;;;;;5093509;28;19923;-72
2021/06/23 14:08:21;;;;;;;;;;;19.80;93.60;;;;;;5093620;28;19915;-71
2021/06/23 14:10:47;;;;;;;;;;;20.00;93.60;;;;;;5092925;28;19908;-71
2021/06/23 14:13:12;;;;;;;;;;;19.90;93.50;;;;;;5093595;28;19914;-71
2021/06/23 14:15:38;;;;;;;;;;;19.80;94.00;;;;;;5093685;28;19908;-71
2021/06/23 14:18:04;;;;;;;;;;;19.70;93.90;;;;;;5092923;28;20003;-71
2021/06/23 14:20:29;;;;;;;;;;;19.50;94.00;;;;;;5093645;28;20054;-71
2021/06/23 14:22:55;;;;;;;;;;;19.50;94.50;;;;;;5093574;28;19908;-71
2021/06/23 14:25:21;;;;;;;;;;;19.50;93.50;;;;;;5092736;28;20003;-71
2021/06/23 14:27:47;;;;;;;;;;;19.50;94.10;;;;;;5093612;28;19987;-71
2021/06/23 14:30:13;;;;;;;;;;;19.50;93.70;;;;;;5093312;28;19909;-71